Airfield :
LOGIN :

Register | Disclaimer

   EN    FR    IT 

 










Legend :    VFR   Marginal VFR   IFR   Intensive IFR   Very Intensive IFR
Visi :
Ceiling :
>= 8 km
>= 3000ft
5 to 8 km
1000 to 3000 ft
1500m to 5 km
500 to 1000 ft
800 to 1500m
200 to 500 ft
< 800m
< 200 ft
Symbols :   Thunderstorms  Fog  Heavy snow  Heavy precipitations  Wind > 20 kt
SIGMETs :     Misc.  Thunderstorms  Icing  Turbulence  Mountain Waves  Volcanic Ashes






- Airport Elevation : 287 ft


LFRL - Lanveoc Poulmic

CURRENT METAR :
  • 080400Z AUTO 28014KT 9999 FEW036/// SCT076/// BKN200/// ///TCU 07/02 Q0996

EXPIRED METARs :
  • 080330Z AUTO 29016KT 9999 FEW033 SCT041 OVC190 07/03 Q0996
  • 080300Z AUTO 27010KT 9999 BKN028/// BKN078/// BKN170/// ///TCU 07/03 Q0995
  • 080230Z AUTO 29016KT 260V320 9999 SCT024/// BKN034/// BKN049/// ///TCU 07/04 Q0996
  • 080200Z AUTO 18006KT 150V210 9999 BKN035/// BKN048/// BKN058/// ///TCU 04/03 Q0995
  • 080130Z AUTO 21006KT CAVOK 03/02 Q0995

TAF AMD TAF LFRL
Valid from the 07 at 09:00 until the 08 at 06:00 UTC


070944Z 0709/0806 18020G30KT 4000 RA OVC010
TEMPO 0709/0712 18025G40KT 1300 +RA BKN003 BKN015CB
BECMG 0711/0713 26020G35KT 9999 NSW SCT035
TEMPO 0715/0806 26025G45KT 4000 SHRA BKN020TCU
PROB40
TEMPO 0718/0806 26030G50KT 1500 TSRAGS BKN010CB



MET'MAP, your aeronautical weather chart ! - Copyright ORBIFLY December 2007 - Disclaimer

ORBIFLY MET'MAP TEAM :

Programming & Development : Alexandra Zaïnal
Concept & original design : Baudouin d'Aumeries
Assistance for programming : Marc-Olivier Méhu
Technical & hardware support : Manuel Goepfert

Contact : metmap@orbifly.com




SOURCES & CREDITS :

   NOAA